Terminal Aerodrome Forecast
Issued by NWS Omaha/Valley, NE

Home | Current Version | Previous Version | Graphics & Text | Print | Product List | Glossary On
Versions: 1 2 3 4 5 6 7 8 9 10 11 12 13 14 15 16 17 18 19 20 21 22 23 24 25 26 27 28 29 30 31 32 33 34 35 36 37 38 39 40 41 42 43 44
000
FTUS43 KOAX 140417 AAA
TAFOFK
TAF AMD
KOFK 140417Z 1404/1424 34013KT P6SM BKN035
     FM141200 32007KT P6SM OVC030
     FM141500 31007KT P6SM -RASN OVC025
     FM142000 31008KT P6SM OVC015 PROB30 1420/1424 4SM -RASN OVC007=

USA.gov is the U.S. government's official web portal to all federal, state and local government web resources and services.